createdAt,value
2022-10-15T00:02:33.268Z,19.80
2022-10-15T00:05:39.729Z,19.70
2022-10-15T00:08:42.678Z,19.70
2022-10-15T00:11:44.760Z,19.70
2022-10-15T00:14:46.870Z,19.70
2022-10-15T00:17:49.079Z,19.80
2022-10-15T00:20:51.222Z,19.80
2022-10-15T00:23:53.421Z,19.70
2022-10-15T00:26:55.561Z,19.70
2022-10-15T00:30:00.282Z,19.60
2022-10-15T00:33:02.573Z,19.70
2022-10-15T00:36:12.415Z,19.60
2022-10-15T00:39:15.054Z,19.60
2022-10-15T00:42:17.682Z,19.60
2022-10-15T00:45:20.154Z,19.60
2022-10-15T00:48:22.356Z,19.70
2022-10-15T00:51:30.390Z,19.60
2022-10-15T00:54:38.190Z,19.60
2022-10-15T00:57:41.093Z,19.60
2022-10-15T01:00:43.618Z,19.60
2022-10-15T01:03:46.217Z,19.60
2022-10-15T01:06:48.403Z,19.50
2022-10-15T01:09:51.039Z,19.50
2022-10-15T01:13:04.669Z,19.40
2022-10-15T01:16:16.482Z,19.40
2022-10-15T01:19:24.577Z,19.40
2022-10-15T01:22:32.903Z,19.40
2022-10-15T01:26:02.605Z,19.40
2022-10-15T01:29:21.994Z,19.30
2022-10-15T01:32:32.410Z,19.30
2022-10-15T01:35:47.523Z,19.20
2022-10-15T01:39:06.530Z,19.20
2022-10-15T01:42:21.120Z,19.10
2022-10-15T01:45:48.810Z,19.10
2022-10-15T01:48:54.424Z,19.00
2022-10-15T01:51:59.006Z,19.10
2022-10-15T01:55:02.705Z,19.00
2022-10-15T01:58:05.958Z,19.00
2022-10-15T02:01:08.403Z,18.90
2022-10-15T02:04:21.089Z,18.90
2022-10-15T02:07:29.074Z,18.90
2022-10-15T02:10:51.246Z,18.90
2022-10-15T02:13:58.731Z,18.90
2022-10-15T02:17:09.167Z,18.80
2022-10-15T02:20:46.226Z,18.80
2022-10-15T02:23:48.489Z,18.80
2022-10-15T02:26:53.271Z,18.70
2022-10-15T02:29:56.638Z,18.80
2022-10-15T02:33:00.228Z,18.80
2022-10-15T02:36:02.849Z,18.80
2022-10-15T02:39:07.622Z,18.80
2022-10-15T02:42:09.853Z,18.80
2022-10-15T02:45:11.903Z,18.80
2022-10-15T02:48:14.142Z,18.80
2022-10-15T02:51:16.322Z,18.80
2022-10-15T02:54:18.439Z,18.70
2022-10-15T02:57:20.738Z,18.70
2022-10-15T03:00:23.084Z,18.70
2022-10-15T03:03:30.361Z,18.80
2022-10-15T03:06:34.014Z,18.80
2022-10-15T03:09:36.038Z,18.80
2022-10-15T03:12:39.086Z,18.70
2022-10-15T03:15:41.329Z,18.80
2022-10-15T03:18:43.415Z,18.80
2022-10-15T03:21:45.562Z,18.70
2022-10-15T03:24:47.975Z,18.70
2022-10-15T03:27:53.034Z,18.70
2022-10-15T03:30:55.395Z,18.70
2022-10-15T03:33:57.491Z,18.70
2022-10-15T03:36:59.608Z,18.70
2022-10-15T03:40:01.705Z,18.70
2022-10-15T03:43:03.867Z,18.70
2022-10-15T03:46:06.085Z,18.60
2022-10-15T03:49:08.138Z,18.60
2022-10-15T03:52:10.241Z,18.60
2022-10-15T03:55:12.989Z,18.50
2022-10-15T03:58:15.179Z,18.50
2022-10-15T04:01:19.701Z,18.50
2022-10-15T04:04:21.819Z,18.50
2022-10-15T04:07:24.394Z,18.50
2022-10-15T04:10:26.595Z,18.50
2022-10-15T04:13:29.412Z,18.50
2022-10-15T04:16:47.307Z,18.50
2022-10-15T04:19:52.486Z,18.40
2022-10-15T04:22:54.638Z,18.50
2022-10-15T04:26:00.462Z,18.40
2022-10-15T04:29:02.736Z,18.40
2022-10-15T04:32:05.139Z,18.30
2022-10-15T04:35:08.086Z,18.30
2022-10-15T04:38:10.273Z,18.30
2022-10-15T04:41:13.120Z,18.30
2022-10-15T04:44:15.700Z,18.40
2022-10-15T04:47:17.725Z,18.30
2022-10-15T04:50:23.955Z,18.40
2022-10-15T04:53:26.139Z,18.40
2022-10-15T04:56:28.290Z,18.40
2022-10-15T04:59:30.301Z,18.40
2022-10-15T05:02:33.225Z,18.40
2022-10-15T05:05:35.461Z,18.40
2022-10-15T05:08:38.385Z,18.40
2022-10-15T05:11:41.031Z,18.40
2022-10-15T05:14:43.932Z,18.30
2022-10-15T05:17:46.143Z,18.20
2022-10-15T05:20:48.320Z,18.20
2022-10-15T05:23:51.148Z,18.20
2022-10-15T05:26:54.660Z,18.20
2022-10-15T05:29:57.078Z,18.20
2022-10-15T05:32:59.328Z,18.20
2022-10-15T05:36:22.989Z,18.20
2022-10-15T05:39:25.327Z,18.10
2022-10-15T05:42:28.468Z,18.10
2022-10-15T05:45:30.497Z,18.10
2022-10-15T05:48:32.545Z,18.00
2022-10-15T05:51:34.977Z,18.00
2022-10-15T05:54:37.993Z,18.00
2022-10-15T05:57:41.316Z,18.00
2022-10-15T06:00:43.468Z,18.00
2022-10-15T06:03:46.517Z,18.10
2022-10-15T06:06:48.593Z,17.90
2022-10-15T06:09:50.763Z,18.00
2022-10-15T06:12:53.087Z,18.00
2022-10-15T06:15:55.205Z,18.00
2022-10-15T06:18:57.237Z,18.00
2022-10-15T06:21:59.403Z,18.10
2022-10-15T06:25:01.774Z,18.00
2022-10-15T06:28:06.293Z,18.00
2022-10-15T06:31:08.816Z,18.00
2022-10-15T06:34:18.995Z,18.00
2022-10-15T06:37:21.366Z,18.00
2022-10-15T06:40:23.902Z,18.10
2022-10-15T06:43:27.105Z,18.10
2022-10-15T06:46:31.870Z,18.00
2022-10-15T06:49:34.904Z,18.10
2022-10-15T06:52:37.761Z,18.10
2022-10-15T06:55:40.180Z,18.10
2022-10-15T06:58:43.553Z,18.10
2022-10-15T07:01:45.883Z,18.10
2022-10-15T07:04:48.572Z,18.30
2022-10-15T07:07:57.663Z,18.80
2022-10-15T07:11:04.258Z,19.30
2022-10-15T07:14:06.566Z,20.00
2022-10-15T07:17:09.229Z,20.70
2022-10-15T07:20:11.387Z,21.50
2022-10-15T07:23:13.788Z,22.10
2022-10-15T07:26:15.898Z,23.00
2022-10-15T07:29:18.005Z,23.80
2022-10-15T07:32:20.040Z,24.40
2022-10-15T07:35:22.202Z,24.80
2022-10-15T07:38:24.223Z,25.50
2022-10-15T07:41:26.392Z,26.00
2022-10-15T07:44:29.471Z,26.90
2022-10-15T07:47:32.191Z,26.90
2022-10-15T07:50:35.599Z,27.30
2022-10-15T07:53:39.670Z,28.00
2022-10-15T07:56:41.687Z,28.10
2022-10-15T07:59:43.878Z,29.10
2022-10-15T08:02:47.146Z,29.20
2022-10-15T08:05:53.235Z,29.60
2022-10-15T08:08:55.575Z,30.00
2022-10-15T08:11:57.697Z,30.60
2022-10-15T08:14:59.926Z,31.30
2022-10-15T08:18:02.102Z,31.50
2022-10-15T08:21:06.301Z,31.60
2022-10-15T08:24:08.308Z,31.60
2022-10-15T08:27:10.519Z,32.30
2022-10-15T08:30:12.688Z,33.00
2022-10-15T08:33:15.208Z,33.60
2022-10-15T08:36:17.318Z,34.00
2022-10-15T08:39:19.373Z,34.60
2022-10-15T08:42:29.083Z,34.90
2022-10-15T08:45:34.422Z,35.70
2022-10-15T08:48:47.834Z,35.50
2022-10-15T08:51:55.441Z,36.00
2022-10-15T08:55:01.609Z,36.50
2022-10-15T08:58:14.563Z,36.90
2022-10-15T09:01:38.448Z,37.50
2022-10-15T09:04:55.800Z,37.50
2022-10-15T09:08:03.911Z,37.90
2022-10-15T09:11:26.190Z,37.00
2022-10-15T09:14:35.952Z,38.00
2022-10-15T09:17:38.471Z,38.60
2022-10-15T09:20:40.599Z,38.30
2022-10-15T09:23:44.505Z,38.90
2022-10-15T09:27:15.965Z,38.00
2022-10-15T09:30:42.867Z,38.00
2022-10-15T09:33:54.601Z,38.60
2022-10-15T09:37:02.095Z,38.90
2022-10-15T09:40:07.574Z,39.00
2022-10-15T09:43:11.895Z,39.40
2022-10-15T09:46:15.152Z,39.30
2022-10-15T09:49:21.221Z,39.50
2022-10-15T09:52:47.609Z,39.80
2022-10-15T09:56:07.884Z,39.50
2022-10-15T09:59:17.993Z,39.70
2022-10-15T10:02:22.515Z,39.60
2022-10-15T10:05:31.087Z,39.00
2022-10-15T10:08:39.474Z,40.00
2022-10-15T10:12:03.546Z,40.00
2022-10-15T10:15:30.902Z,39.70
2022-10-15T10:18:33.700Z,39.40
2022-10-15T10:21:39.289Z,39.00
2022-10-15T10:24:41.399Z,38.60
2022-10-15T10:27:46.369Z,39.00
2022-10-15T10:30:54.413Z,39.50
2022-10-15T10:33:56.907Z,40.20
2022-10-15T10:37:04.264Z,40.00
2022-10-15T10:40:30.516Z,40.10
2022-10-15T10:43:39.140Z,39.80
2022-10-15T10:46:41.680Z,39.00
2022-10-15T10:49:46.851Z,38.50
2022-10-15T10:52:48.874Z,39.10
2022-10-15T10:55:54.634Z,39.60
2022-10-15T10:59:02.143Z,39.40
2022-10-15T11:02:09.907Z,39.60
2022-10-15T11:05:13.112Z,39.90
2022-10-15T11:08:37.064Z,40.00
2022-10-15T11:11:44.566Z,39.10
2022-10-15T11:15:25.151Z,38.70
2022-10-15T11:19:03.575Z,38.60
2022-10-15T11:22:14.583Z,38.20
2022-10-15T11:25:44.604Z,38.30
2022-10-15T11:29:07.356Z,37.30
2022-10-15T11:32:17.048Z,37.50
2022-10-15T11:35:52.790Z,36.80
2022-10-15T11:39:39.438Z,35.50
2022-10-15T11:42:56.781Z,34.10
2022-10-15T11:46:13.852Z,32.50
2022-10-15T11:49:25.976Z,31.50
2022-10-15T11:52:55.248Z,30.80
2022-10-15T11:56:23.399Z,30.20
2022-10-15T11:59:49.286Z,29.60
2022-10-15T12:02:54.371Z,29.10
2022-10-15T12:06:20.685Z,28.70
2022-10-15T12:09:30.825Z,28.40
2022-10-15T12:13:00.018Z,28.00
2022-10-15T12:16:39.568Z,27.60
2022-10-15T12:19:55.606Z,27.50
2022-10-15T12:23:03.141Z,27.50
2022-10-15T12:26:32.588Z,27.40
2022-10-15T12:29:34.804Z,27.40
2022-10-15T12:32:42.851Z,27.30
2022-10-15T12:35:55.062Z,27.20
2022-10-15T12:39:12.809Z,27.00
2022-10-15T12:42:39.642Z,27.00
2022-10-15T12:46:00.380Z,26.70
2022-10-15T12:49:22.559Z,26.60
2022-10-15T12:52:49.808Z,26.60
2022-10-15T12:56:10.650Z,26.70
2022-10-15T12:59:54.775Z,26.60
2022-10-15T13:03:07.436Z,26.60
2022-10-15T13:06:21.444Z,26.60
2022-10-15T13:09:32.046Z,26.60
2022-10-15T13:12:34.756Z,26.40
2022-10-15T13:15:37.054Z,26.40
2022-10-15T13:18:41.830Z,26.20
2022-10-15T13:21:54.862Z,26.20
2022-10-15T13:24:57.509Z,26.30
2022-10-15T13:27:59.548Z,26.40
2022-10-15T13:31:06.592Z,26.40
2022-10-15T13:34:16.442Z,26.30
2022-10-15T13:37:23.450Z,26.00
2022-10-15T13:40:29.035Z,26.10
2022-10-15T13:43:31.033Z,26.20
2022-10-15T13:46:37.913Z,26.20
2022-10-15T13:49:39.906Z,26.30
2022-10-15T13:52:44.732Z,26.20
2022-10-15T13:55:50.337Z,26.20
2022-10-15T13:58:54.133Z,26.20
2022-10-15T14:02:04.501Z,26.20
2022-10-15T14:05:16.641Z,26.10
2022-10-15T14:08:38.890Z,26.20
2022-10-15T14:11:40.972Z,26.10
2022-10-15T14:14:48.254Z,25.90
2022-10-15T14:17:52.056Z,25.90
2022-10-15T14:20:55.234Z,25.80
2022-10-15T14:24:06.828Z,25.80
2022-10-15T14:27:18.892Z,25.70
2022-10-15T14:30:36.806Z,25.70
2022-10-15T14:33:42.029Z,25.70
2022-10-15T14:36:44.224Z,25.70
2022-10-15T14:40:09.436Z,25.80
2022-10-15T14:43:17.806Z,25.70
2022-10-15T14:46:20.897Z,25.70
2022-10-15T14:49:25.943Z,25.50
2022-10-15T14:52:30.629Z,25.50
2022-10-15T14:55:40.730Z,25.20
2022-10-15T14:58:53.342Z,25.10
2022-10-15T15:02:02.967Z,25.20
2022-10-15T15:05:11.513Z,25.10
2022-10-15T15:08:14.213Z,25.00
2022-10-15T15:11:24.188Z,24.90
2022-10-15T15:14:26.467Z,24.80
2022-10-15T15:17:30.344Z,24.90
2022-10-15T15:20:33.479Z,24.80
2022-10-15T15:23:36.213Z,24.80
2022-10-15T15:26:38.241Z,24.80
2022-10-15T15:29:42.024Z,24.80
2022-10-15T15:32:46.028Z,24.70
2022-10-15T15:35:55.557Z,24.60
2022-10-15T15:38:59.319Z,24.60
2022-10-15T15:42:01.345Z,24.50
2022-10-15T15:45:03.897Z,24.50
2022-10-15T15:48:06.100Z,24.40
2022-10-15T15:51:22.265Z,24.30
2022-10-15T15:54:24.375Z,24.10
2022-10-15T15:57:26.724Z,24.00
2022-10-15T16:00:28.961Z,24.00
2022-10-15T16:03:31.257Z,23.90
2022-10-15T16:06:33.348Z,23.90
2022-10-15T16:09:35.653Z,24.00
2022-10-15T16:12:41.311Z,23.90
2022-10-15T16:15:43.473Z,23.80
2022-10-15T16:18:45.747Z,23.70
2022-10-15T16:21:47.921Z,23.70
2022-10-15T16:24:49.950Z,23.70
2022-10-15T16:27:52.153Z,23.70
2022-10-15T16:30:54.222Z,23.60
2022-10-15T16:33:56.518Z,23.60
2022-10-15T16:36:58.599Z,23.60
2022-10-15T16:40:00.694Z,23.50
2022-10-15T16:43:04.356Z,23.50
2022-10-15T16:46:07.533Z,23.40
2022-10-15T16:49:09.691Z,23.40
2022-10-15T16:52:12.513Z,23.30
2022-10-15T16:55:14.618Z,23.20
2022-10-15T16:58:16.691Z,23.20
2022-10-15T17:01:21.929Z,23.10
2022-10-15T17:04:24.011Z,23.10
2022-10-15T17:07:26.450Z,23.00
2022-10-15T17:10:28.956Z,22.90
2022-10-15T17:13:31.158Z,22.80
2022-10-15T17:16:51.199Z,22.80
2022-10-15T17:19:53.504Z,22.60
2022-10-15T17:22:58.183Z,22.60
2022-10-15T17:26:05.872Z,22.60
2022-10-15T17:29:10.965Z,22.50
2022-10-15T17:32:13.037Z,22.50
2022-10-15T17:35:15.210Z,22.50
2022-10-15T17:38:19.246Z,22.50
2022-10-15T17:41:26.375Z,22.40
2022-10-15T17:44:28.465Z,22.30
2022-10-15T17:47:30.609Z,22.30
2022-10-15T17:50:32.629Z,22.10
2022-10-15T17:53:35.032Z,21.90
2022-10-15T17:56:40.944Z,21.90
2022-10-15T17:59:44.555Z,21.80
2022-10-15T18:02:51.553Z,21.70
2022-10-15T18:05:53.619Z,21.70
2022-10-15T18:08:56.204Z,21.60
2022-10-15T18:12:00.636Z,21.60
2022-10-15T18:15:03.097Z,21.50
2022-10-15T18:18:05.243Z,21.50
2022-10-15T18:21:12.304Z,21.50
2022-10-15T18:24:14.438Z,21.50
2022-10-15T18:27:16.561Z,21.40
2022-10-15T18:30:18.790Z,21.40
2022-10-15T18:33:21.052Z,21.40
2022-10-15T18:36:28.948Z,21.30
2022-10-15T18:39:31.168Z,21.30
2022-10-15T18:42:33.225Z,21.30
2022-10-15T18:45:36.778Z,21.30
2022-10-15T18:48:38.975Z,21.20
2022-10-15T18:51:41.372Z,21.20
2022-10-15T18:54:43.467Z,21.10
2022-10-15T18:57:45.711Z,21.10
2022-10-15T19:00:47.744Z,21.10
2022-10-15T19:03:52.915Z,21.00
2022-10-15T19:06:55.470Z,21.10
2022-10-15T19:09:57.754Z,21.00
2022-10-15T19:13:00.237Z,21.00
2022-10-15T19:16:04.275Z,21.00
2022-10-15T19:19:07.578Z,20.90
2022-10-15T19:22:09.559Z,20.90
2022-10-15T19:25:11.604Z,20.90
2022-10-15T19:28:13.744Z,20.80
2022-10-15T19:31:26.121Z,20.80
2022-10-15T19:34:28.163Z,20.80
2022-10-15T19:37:30.247Z,20.80
2022-10-15T19:40:32.297Z,20.80
2022-10-15T19:43:34.349Z,20.70
2022-10-15T19:46:37.514Z,20.70
2022-10-15T19:49:39.544Z,20.60
2022-10-15T19:52:41.665Z,20.50
2022-10-15T19:55:44.817Z,20.60
2022-10-15T19:58:46.986Z,20.60
2022-10-15T20:01:49.243Z,20.60
2022-10-15T20:04:51.799Z,20.50
2022-10-15T20:07:54.252Z,20.50
2022-10-15T20:10:56.224Z,20.40
2022-10-15T20:14:02.436Z,20.40
2022-10-15T20:17:05.026Z,20.40
2022-10-15T20:20:07.291Z,20.30
2022-10-15T20:23:10.150Z,20.40
2022-10-15T20:26:14.907Z,20.30
2022-10-15T20:29:17.663Z,20.30
2022-10-15T20:32:33.803Z,20.30
2022-10-15T20:35:38.407Z,20.30
2022-10-15T20:38:41.022Z,20.20
2022-10-15T20:41:43.075Z,20.20
2022-10-15T20:44:45.101Z,20.20
2022-10-15T20:47:51.259Z,20.20
2022-10-15T20:50:55.428Z,20.20
2022-10-15T20:53:59.181Z,20.20
2022-10-15T20:57:01.557Z,20.10
2022-10-15T21:00:06.803Z,20.10
2022-10-15T21:03:08.879Z,20.10
2022-10-15T21:06:10.935Z,20.10
2022-10-15T21:09:13.578Z,20.10
2022-10-15T21:12:15.773Z,20.10
2022-10-15T21:15:17.962Z,20.10
2022-10-15T21:18:20.105Z,20.10
2022-10-15T21:21:22.305Z,20.00
2022-10-15T21:24:28.030Z,20.00
2022-10-15T21:27:30.980Z,20.10
2022-10-15T21:30:33.262Z,20.10
2022-10-15T21:33:36.265Z,20.10
2022-10-15T21:36:38.340Z,20.10
2022-10-15T21:39:40.373Z,20.10
2022-10-15T21:42:42.520Z,20.10
2022-10-15T21:45:44.869Z,20.10
2022-10-15T21:48:47.276Z,20.20
2022-10-15T21:51:49.491Z,20.20
2022-10-15T21:54:51.586Z,20.20
2022-10-15T21:57:53.807Z,20.20
2022-10-15T22:00:55.985Z,20.10
2022-10-15T22:04:00.729Z,20.20
2022-10-15T22:07:03.471Z,20.30
2022-10-15T22:10:05.947Z,20.30
2022-10-15T22:13:08.062Z,20.40
2022-10-15T22:16:10.811Z,20.40
2022-10-15T22:19:15.136Z,20.50
2022-10-15T22:22:17.094Z,20.60
2022-10-15T22:25:19.273Z,20.60
2022-10-15T22:28:28.101Z,20.60
2022-10-15T22:31:34.684Z,20.60
2022-10-15T22:34:37.322Z,20.60
2022-10-15T22:37:42.496Z,20.60
2022-10-15T22:40:53.625Z,20.60
2022-10-15T22:43:57.393Z,20.60
2022-10-15T22:47:00.652Z,20.60
2022-10-15T22:50:03.138Z,20.60
2022-10-15T22:53:05.497Z,20.60
2022-10-15T22:56:18.836Z,20.70
2022-10-15T22:59:21.583Z,20.60
2022-10-15T23:02:23.930Z,20.70
2022-10-15T23:05:26.328Z,20.60
2022-10-15T23:08:28.523Z,20.70
2022-10-15T23:11:38.268Z,20.70
2022-10-15T23:14:40.428Z,20.70
2022-10-15T23:17:42.882Z,20.70
2022-10-15T23:20:47.460Z,20.60
2022-10-15T23:23:52.369Z,20.60
2022-10-15T23:26:54.744Z,20.60
2022-10-15T23:30:07.494Z,20.50
2022-10-15T23:33:23.384Z,20.60
2022-10-15T23:36:28.631Z,20.60
2022-10-15T23:39:41.946Z,20.60
2022-10-15T23:42:46.199Z,20.60
2022-10-15T23:45:48.510Z,20.60
2022-10-15T23:48:51.269Z,20.60
2022-10-15T23:51:53.776Z,20.70
2022-10-15T23:54:55.842Z,20.70
2022-10-15T23:57:58.101Z,20.70
